Time;durP1;ratioP1;P1;durP2;ratioP2;P2;SDS_P1;SDS_P2;PMS_P1;PMS_P2;Temp;Humidity;BMP_temperature;BMP_pressure;BME280_temperature;BME280_humidity;BME280_pressure;Samples;Min_cycle;Max_cycle;Signal;HPM_P1;HPM_P2
2023/08/22 00:01:53;;;;;;;;;;;;;;;;;;4999073;28;19972;-68
2023/08/22 00:04:20;;;;;;;;;;;;;;;;;;5009661;28;19933;-68
2023/08/22 00:06:47;;;;;;;;;;;;;;;;;;5011976;28;19929;-68
2023/08/22 00:09:16;;;;;;;;;;;;;;;;;;5011782;28;19925;-68
2023/08/22 00:11:44;;;;;;;;;;;;;;;;;;5002744;28;20300;-68
2023/08/22 00:14:11;;;;;;;;;;;;;;;;;;5010747;28;19938;-68
2023/08/22 00:16:38;;;;;;;;;;;;;;;;;;5012483;28;19926;-69
2023/08/22 00:19:05;;;;;;;;;;;;;;;;;;5011715;28;20328;-68
2023/08/22 00:21:32;;;;;;;;;;;;;;;;;;5008810;28;20015;-68
2023/08/22 00:23:59;;;;;;;;;;;;;;;;;;5009571;28;20290;-68
2023/08/22 00:26:27;;;;;;;;;;;;;;;;;;5013138;28;19960;-68
2023/08/22 00:28:54;;;;;;;;;;;;;;;;;;5011874;28;19976;-68
2023/08/22 00:31:21;;;;;;;;;;;;;;;;;;5011250;28;19937;-68
2023/08/22 00:33:48;;;;;;;;;;;;;;;;;;5011564;28;20041;-68
2023/08/22 00:36:15;;;;;;;;;;;;;;;;;;5009879;28;19981;-68
2023/08/22 00:38:42;;;;;;;;;;;;;;;;;;5011088;28;19926;-68
2023/08/22 00:41:09;;;;;;;;;;;;;;;;;;5012202;28;20313;-69
2023/08/22 00:43:36;;;;;;;;;;;;;;;;;;5011722;28;19991;-68
2023/08/22 00:46:03;;;;;;;;;;;;;;;;;;5011011;28;19926;-67
2023/08/22 00:48:30;;;;;;;;;;;;;;;;;;5011584;28;19930;-68
2023/08/22 00:50:57;;;;;;;;;;;;;;;;;;5011293;28;20304;-68
2023/08/22 00:53:25;;;;;;;;;;;;;;;;;;5010486;28;19925;-68
2023/08/22 00:55:52;;;;;;;;;;;;;;;;;;5011204;28;19933;-69
2023/08/22 00:58:19;;;;;;;;;;;;;;;;;;5012326;28;19925;-68
2023/08/22 01:00:46;;;;;;;;;;;;;;;;;;5012416;28;19925;-69
2023/08/22 01:03:14;;;;;;;;;;;;;;;;;;5012905;28;19929;-68
2023/08/22 01:05:41;;;;;;;;;;;;;;;;;;5012190;28;19981;-68
2023/08/22 01:08:08;;;;;;;;;;;;;;;;;;5011911;28;20348;-68
2023/08/22 01:10:36;;;;;;;;;;;;;;;;;;5011227;28;20016;-68
2023/08/22 01:13:02;;;;;;;;;;;;;;;;;;5015606;28;19925;-68
2023/08/22 01:15:30;;;;;;;;;;;;;;;;;;5014358;28;19990;-68
2023/08/22 01:17:57;;;;;;;;;;;;;;;;;;5016449;28;20044;-68
2023/08/22 01:20:24;;;;;;;;;;;;;;;;;;5015173;28;19929;-68
2023/08/22 01:22:51;;;;;;;;;;;;;;;;;;5014983;28;19956;-69
2023/08/22 01:25:18;;;;;;;;;;;;;;;;;;5013406;28;19930;-68
2023/08/22 01:27:46;;;;;;;;;;;;;;;;;;5013007;28;19999;-67
2023/08/22 01:30:13;;;;;;;;;;;;;;;;;;5016147;28;19925;-68
2023/08/22 01:32:40;;;;;;;;;;;;;;;;;;5014484;28;19926;-67
2023/08/22 01:35:07;;;;;;;;;;;;;;;;;;5016193;28;19926;-67
2023/08/22 01:37:34;;;;;;;;;;;;;;;;;;5014086;28;20306;-68
2023/08/22 01:40:01;;;;;;;;;;;;;;;;;;5013636;28;20020;-67
2023/08/22 01:42:28;;;;;;;;;;;;;;;;;;5012671;28;19937;-68
2023/08/22 01:44:55;;;;;;;;;;;;;;;;;;5014282;28;19925;-68
2023/08/22 01:47:22;;;;;;;;;;;;;;;;;;5014732;28;19980;-67
2023/08/22 01:49:49;;;;;;;;;;;;;;;;;;5015210;28;19948;-68
2023/08/22 01:52:16;;;;;;;;;;;;;;;;;;5016165;28;19964;-67
2023/08/22 01:54:43;;;;;;;;;;;;;;;;;;5013560;28;19988;-68
2023/08/22 01:57:10;;;;;;;;;;;;;;;;;;5014263;28;19933;-67
2023/08/22 01:59:37;;;;;;;;;;;;;;;;;;5014999;28;19926;-68
2023/08/22 02:02:04;;;;;;;;;;;;;;;;;;5014865;28;19976;-67
2023/08/22 02:04:31;;;;;;;;;;;;;;;;;;5014081;28;19925;-68
2023/08/22 02:06:58;;;;;;;;;;;;;;;;;;5014785;28;19926;-67
2023/08/22 02:09:25;;;;;;;;;;;;;;;;;;5014835;28;19925;-68
2023/08/22 02:11:52;;;;;;;;;;;;;;;;;;5013685;28;19930;-68
2023/08/22 02:14:19;;;;;;;;;;;;;;;;;;5011485;28;19929;-68
2023/08/22 02:16:46;;;;;;;;;;;;;;;;;;5014240;28;19934;-68
2023/08/22 02:19:15;;;;;;;;;;;;;;;;;;5013890;28;19996;-68
2023/08/22 02:21:42;;;;;;;;;;;;;;;;;;5013523;28;19932;-68
2023/08/22 02:24:09;;;;;;;;;;;;;;;;;;5008836;28;19925;-68
2023/08/22 02:26:37;;;;;;;;;;;;;;;;;;5012955;28;19925;-69
2023/08/22 02:29:04;;;;;;;;;;;;;;;;;;5014323;28;19952;-68
2023/08/22 02:31:31;;;;;;;;;;;;;;;;;;5011644;28;19957;-69
2023/08/22 02:33:58;;;;;;;;;;;;;;;;;;5013614;28;19926;-68
2023/08/22 02:36:26;;;;;;;;;;;;;;;;;;5013952;28;19948;-69
2023/08/22 02:38:53;;;;;;;;;;;;;;;;;;5011414;28;19980;-69
2023/08/22 02:41:20;;;;;;;;;;;;;;;;;;5013530;28;19925;-69
2023/08/22 02:43:47;;;;;;;;;;;;;;;;;;5015230;28;19940;-68
2023/08/22 02:46:14;;;;;;;;;;;;;;;;;;5013176;28;20314;-69
2023/08/22 02:48:42;;;;;;;;;;;;;;;;;;5013574;28;19991;-67
2023/08/22 02:51:09;;;;;;;;;;;;;;;;;;5011793;28;19948;-69
2023/08/22 02:53:36;;;;;;;;;;;;;;;;;;5013012;28;19979;-68
2023/08/22 02:56:04;;;;;;;;;;;;;;;;;;5013556;28;19929;-68
2023/08/22 02:58:31;;;;;;;;;;;;;;;;;;5013780;28;19926;-68
2023/08/22 03:00:58;;;;;;;;;;;;;;;;;;5022332;28;19964;-68
2023/08/22 03:03:25;;;;;;;;;;;;;;;;;;5013761;28;19989;-68
2023/08/22 03:05:52;;;;;;;;;;;;;;;;;;5013889;28;20343;-68
2023/08/22 03:08:19;;;;;;;;;;;;;;;;;;5011547;28;20727;-68
2023/08/22 03:10:46;;;;;;;;;;;;;;;;;;5012579;28;19926;-68
2023/08/22 03:13:13;;;;;;;;;;;;;;;;;;5013916;28;20443;-68
2023/08/22 03:15:40;;;;;;;;;;;;;;;;;;5013685;28;19986;-69
2023/08/22 03:18:07;;;;;;;;;;;;;;;;;;5014140;28;20031;-68
2023/08/22 03:20:34;;;;;;;;;;;;;;;;;;5012574;28;19971;-68
2023/08/22 03:23:02;;;;;;;;;;;;;;;;;;5014373;28;19933;-68
2023/08/22 03:25:29;;;;;;;;;;;;;;;;;;5013915;28;20388;-67
2023/08/22 03:27:56;;;;;;;;;;;;;;;;;;5013490;28;19925;-67
2023/08/22 03:30:23;;;;;;;;;;;;;;;;;;5013440;28;19929;-68
2023/08/22 03:32:50;;;;;;;;;;;;;;;;;;4995384;28;20298;-68
2023/08/22 03:35:17;;;;;;;;;;;;;;;;;;5003137;28;19926;-68
2023/08/22 03:37:44;;;;;;;;;;;;;;;;;;5013578;28;20474;-68
2023/08/22 03:40:11;;;;;;;;;;;;;;;;;;5013275;28;19925;-68
2023/08/22 03:42:38;;;;;;;;;;;;;;;;;;5011063;28;19925;-70
2023/08/22 03:45:05;;;;;;;;;;;;;;;;;;5012601;28;19972;-69
2023/08/22 03:47:32;;;;;;;;;;;;;;;;;;5012954;28;19976;-69
2023/08/22 03:49:59;;;;;;;;;;;;;;;;;;5012864;28;19926;-69
2023/08/22 03:52:26;;;;;;;;;;;;;;;;;;5006279;28;19929;-69
2023/08/22 03:54:53;;;;;;;;;;;;;;;;;;5012573;28;19980;-69
2023/08/22 03:57:20;;;;;;;;;;;;;;;;;;5010480;28;19975;-69
2023/08/22 03:59:47;;;;;;;;;;;;;;;;;;5012211;28;19977;-69
2023/08/22 04:02:14;;;;;;;;;;;;;;;;;;5001460;28;19926;-69
2023/08/22 04:04:41;;;;;;;;;;;;;;;;;;5012305;28;19930;-69
2023/08/22 04:07:08;;;;;;;;;;;;;;;;;;5013036;28;20360;-69
2023/08/22 04:09:35;;;;;;;;;;;;;;;;;;5012666;28;20373;-69
2023/08/22 04:12:02;;;;;;;;;;;;;;;;;;5010993;28;19930;-69
2023/08/22 04:14:29;;;;;;;;;;;;;;;;;;5011675;28;19933;-70
2023/08/22 04:16:56;;;;;;;;;;;;;;;;;;5012146;28;20015;-69
2023/08/22 04:19:24;;;;;;;;;;;;;;;;;;5012491;28;20498;-70
2023/08/22 04:21:51;;;;;;;;;;;;;;;;;;5010697;28;19933;-70
2023/08/22 04:24:18;;;;;;;;;;;;;;;;;;5013998;28;19965;-70
2023/08/22 04:26:45;;;;;;;;;;;;;;;;;;5008125;28;19932;-68
2023/08/22 04:29:12;;;;;;;;;;;;;;;;;;5010913;28;19996;-68
2023/08/22 04:31:39;;;;;;;;;;;;;;;;;;5006572;28;19972;-68
2023/08/22 04:34:07;;;;;;;;;;;;;;;;;;5007927;28;19925;-67
2023/08/22 04:36:34;;;;;;;;;;;;;;;;;;5010666;28;19925;-67
2023/08/22 04:39:01;;;;;;;;;;;;;;;;;;5012034;28;20352;-68
2023/08/22 04:41:28;;;;;;;;;;;;;;;;;;5006711;28;19980;-67
2023/08/22 04:43:55;;;;;;;;;;;;;;;;;;5011144;28;20344;-67
2023/08/22 04:46:22;;;;;;;;;;;;;;;;;;5012512;28;19926;-68
2023/08/22 04:48:49;;;;;;;;;;;;;;;;;;5009795;28;19937;-67
2023/08/22 04:51:16;;;;;;;;;;;;;;;;;;5009378;28;19925;-68
2023/08/22 04:53:45;;;;;;;;;;;;;;;;;;5011849;28;19956;-69
2023/08/22 04:56:12;;;;;;;;;;;;;;;;;;5010069;28;19929;-67
2023/08/22 04:58:39;;;;;;;;;;;;;;;;;;5017222;28;19968;-66
2023/08/22 05:01:06;;;;;;;;;;;;;;;;;;5031227;28;19925;-67
2023/08/22 05:03:33;;;;;;;;;;;;;;;;;;5016815;28;20020;-66
2023/08/22 05:06:00;;;;;;;;;;;;;;;;;;5011364;28;19926;-67
2023/08/22 05:08:27;;;;;;;;;;;;;;;;;;5009706;28;19930;-66
2023/08/22 05:10:54;;;;;;;;;;;;;;;;;;5006716;28;19961;-67
2023/08/22 05:13:21;;;;;;;;;;;;;;;;;;5011746;28;19925;-66
2023/08/22 05:15:48;;;;;;;;;;;;;;;;;;5011821;28;19979;-66
2023/08/22 05:18:15;;;;;;;;;;;;;;;;;;5012232;28;19929;-66
2023/08/22 05:20:42;;;;;;;;;;;;;;;;;;5006139;28;19929;-66
2023/08/22 05:23:09;;;;;;;;;;;;;;;;;;5003669;28;19984;-66
2023/08/22 05:25:36;;;;;;;;;;;;;;;;;;5006595;28;19929;-67
2023/08/22 05:28:03;;;;;;;;;;;;;;;;;;5004478;28;19933;-66
2023/08/22 05:30:30;;;;;;;;;;;;;;;;;;5008639;28;19972;-66
2023/08/22 05:32:57;;;;;;;;;;;;;;;;;;5005172;28;20340;-66
2023/08/22 05:35:24;;;;;;;;;;;;;;;;;;4992990;28;19957;-67
2023/08/22 05:37:51;;;;;;;;;;;;;;;;;;5007354;28;19926;-68
2023/08/22 05:40:18;;;;;;;;;;;;;;;;;;5011072;28;19980;-67
2023/08/22 05:42:45;;;;;;;;;;;;;;;;;;5007381;28;19933;-67
2023/08/22 05:45:12;;;;;;;;;;;;;;;;;;5011216;28;19979;-67
2023/08/22 05:47:39;;;;;;;;;;;;;;;;;;5011766;28;19925;-67
2023/08/22 05:50:06;;;;;;;;;;;;;;;;;;5011171;28;19929;-66
2023/08/22 05:52:33;;;;;;;;;;;;;;;;;;5010886;28;19933;-67
2023/08/22 05:55:00;;;;;;;;;;;;;;;;;;5009154;28;19926;-66
2023/08/22 05:57:28;;;;;;;;;;;;;;;;;;5009612;28;19929;-67
2023/08/22 05:59:55;;;;;;;;;;;;;;;;;;5013365;28;19925;-66
2023/08/22 06:02:22;;;;;;;;;;;;;;;;;;5014462;28;19926;-65
2023/08/22 06:04:49;;;;;;;;;;;;;;;;;;5012528;28;19926;-66
2023/08/22 06:07:16;;;;;;;;;;;;;;;;;;5027421;28;19972;-66
2023/08/22 06:09:43;;;;;;;;;;;;;;;;;;5014410;28;19926;-67
2023/08/22 06:12:11;;;;;;;;;;;;;;;;;;5011650;28;20384;-66
2023/08/22 06:14:38;;;;;;;;;;;;;;;;;;5014113;28;20348;-66
2023/08/22 06:17:05;;;;;;;;;;;;;;;;;;5014180;28;19933;-67
2023/08/22 06:19:32;;;;;;;;;;;;;;;;;;5009703;28;19941;-67
2023/08/22 06:21:59;;;;;;;;;;;;;;;;;;5011817;28;19941;-67
2023/08/22 06:24:26;;;;;;;;;;;;;;;;;;5018426;28;20328;-66
2023/08/22 06:26:54;;;;;;;;;;;;;;;;;;5012845;28;19929;-66
2023/08/22 06:29:21;;;;;;;;;;;;;;;;;;5012842;28;19980;-66
2023/08/22 06:31:48;;;;;;;;;;;;;;;;;;5006137;28;19995;-65
2023/08/22 06:34:15;;;;;;;;;;;;;;;;;;5008403;28;19997;-66
2023/08/22 06:36:42;;;;;;;;;;;;;;;;;;5011332;28;19926;-72
2023/08/22 06:39:09;;;;;;;;;;;;;;;;;;5012346;28;19926;-67
2023/08/22 06:41:36;;;;;;;;;;;;;;;;;;5013412;28;19999;-65
2023/08/22 06:44:07;;;;;;;;;;;;;;;;;;5011828;28;20023;-67
2023/08/22 06:46:34;;;;;;;;;;;;;;;;;;5027219;28;19936;-66
2023/08/22 06:49:02;;;;;;;;;;;;;;;;;;5016192;28;19931;-66
2023/08/22 06:51:29;;;;;;;;;;;;;;;;;;5016888;28;20016;-67
2023/08/22 06:53:56;;;;;;;;;;;;;;;;;;5014242;28;19999;-67
2023/08/22 06:56:23;;;;;;;;;;;;;;;;;;5012263;28;19926;-67
2023/08/22 06:58:50;;;;;;;;;;;;;;;;;;5010587;28;19926;-66
2023/08/22 07:01:17;;;;;;;;;;;;;;;;;;5014800;28;19968;-67
2023/08/22 07:03:44;;;;;;;;;;;;;;;;;;5018514;28;20297;-66
2023/08/22 07:06:11;;;;;;;;;;;;;;;;;;5012911;28;19929;-66
2023/08/22 07:08:38;;;;;;;;;;;;;;;;;;5013956;28;20381;-64
2023/08/22 07:11:06;;;;;;;;;;;;;;;;;;5012477;28;19929;-66
2023/08/22 07:13:33;;;;;;;;;;;;;;;;;;5007328;28;20344;-66
2023/08/22 07:16:00;;;;;;;;;;;;;;;;;;5011377;28;19926;-67
2023/08/22 07:18:27;;;;;;;;;;;;;;;;;;5009688;28;19926;-68
2023/08/22 07:20:54;;;;;;;;;;;;;;;;;;5010900;28;20351;-66
2023/08/22 07:23:21;;;;;;;;;;;;;;;;;;5012857;28;19972;-65
2023/08/22 07:25:48;;;;;;;;;;;;;;;;;;5008232;28;19925;-65
2023/08/22 07:28:18;;;;;;;;;;;;;;;;;;5006084;28;19964;-66
2023/08/22 07:30:45;;;;;;;;;;;;;;;;;;5007210;28;19934;-70
2023/08/22 07:33:12;;;;;;;;;;;;;;;;;;5022780;28;19984;-66
2023/08/22 07:35:40;;;;;;;;;;;;;;;;;;5010333;28;19929;-66
2023/08/22 07:38:06;;;;;;;;;;;;;;;;;;5007887;28;19957;-67
2023/08/22 07:40:33;;;;;;;;;;;;;;;;;;5003486;28;19996;-67
2023/08/22 07:43:00;;;;;;;;;;;;;;;;;;5007424;28;19979;-66
2023/08/22 07:45:28;;;;;;;;;;;;;;;;;;5006831;28;19995;-67
2023/08/22 07:47:55;;;;;;;;;;;;;;;;;;5006674;28;19936;-66
2023/08/22 07:50:22;;;;;;;;;;;;;;;;;;5010909;28;19948;-66
2023/08/22 07:52:49;;;;;;;;;;;;;;;;;;5012889;28;19930;-67
2023/08/22 07:55:16;;;;;;;;;;;;;;;;;;5001311;28;19988;-67
2023/08/22 07:57:43;;;;;;;;;;;;;;;;;;5005058;28;19925;-66
2023/08/22 08:00:11;;;;;;;;;;;;;;;;;;5009770;28;20348;-67
2023/08/22 08:02:38;;;;;;;;;;;;;;;;;;5010808;28;20034;-67
2023/08/22 08:05:07;;;;;;;;;;;;;;;;;;5011555;28;19929;-67
2023/08/22 08:07:35;;;;;;;;;;;;;;;;;;5009367;28;20025;-67
2023/08/22 08:10:03;;;;;;;;;;;;;;;;;;5002579;28;19933;-67
2023/08/22 08:12:30;;;;;;;;;;;;;;;;;;5006310;28;20016;-67
2023/08/22 08:14:57;;;;;;;;;;;;;;;;;;5010127;28;19925;-67
2023/08/22 08:17:25;;;;;;;;;;;;;;;;;;5011137;28;19983;-68
2023/08/22 08:19:52;;;;;;;;;;;;;;;;;;5012301;28;19979;-66
2023/08/22 08:22:19;;;;;;;;;;;;;;;;;;5012175;28;19979;-66
2023/08/22 08:24:47;;;;;;;;;;;;;;;;;;5013958;28;19968;-66
2023/08/22 08:27:14;;;;;;;;;;;;;;;;;;5010868;28;19932;-66
2023/08/22 08:29:41;;;;;;;;;;;;;;;;;;5008927;28;19996;-66
2023/08/22 08:32:08;;;;;;;;;;;;;;;;;;5005484;28;19929;-66
2023/08/22 08:34:35;;;;;;;;;;;;;;;;;;5011693;28;20359;-66
2023/08/22 08:37:04;;;;;;;;;;;;;;;;;;5009539;28;19925;-66
2023/08/22 08:39:31;;;;;;;;;;;;;;;;;;5004873;28;19925;-67
2023/08/22 08:41:58;;;;;;;;;;;;;;;;;;5010620;28;19925;-68
2023/08/22 08:44:25;;;;;;;;;;;;;;;;;;5004793;28;19999;-66
2023/08/22 08:46:52;;;;;;;;;;;;;;;;;;5007762;28;19979;-67
2023/08/22 08:49:19;;;;;;;;;;;;;;;;;;5012554;28;19996;-67
2023/08/22 08:51:46;;;;;;;;;;;;;;;;;;5011359;28;19972;-66
2023/08/22 08:54:13;;;;;;;;;;;;;;;;;;5009504;28;19925;-67
2023/08/22 08:56:40;;;;;;;;;;;;;;;;;;5011688;28;19929;-67
2023/08/22 08:59:07;;;;;;;;;;;;;;;;;;5009513;28;19926;-66
2023/08/22 09:01:34;;;;;;;;;;;;;;;;;;5003865;28;19980;-67
2023/08/22 09:04:01;;;;;;;;;;;;;;;;;;5010409;28;19925;-67
2023/08/22 09:06:28;;;;;;;;;;;;;;;;;;5003301;28;19972;-67
2023/08/22 09:08:55;;;;;;;;;;;;;;;;;;5010320;28;19925;-66
2023/08/22 09:11:22;;;;;;;;;;;;;;;;;;5011678;28;20384;-66
2023/08/22 09:13:49;;;;;;;;;;;;;;;;;;5019951;28;19979;-66
2023/08/22 09:16:16;;;;;;;;;;;;;;;;;;5016470;28;19996;-67
2023/08/22 09:18:43;;;;;;;;;;;;;;;;;;5009371;28;19926;-66
2023/08/22 09:21:11;;;;;;;;;;;;;;;;;;5007040;28;19933;-66
2023/08/22 09:23:38;;;;;;;;;;;;;;;;;;5004876;28;19940;-66
2023/08/22 09:26:05;;;;;;;;;;;;;;;;;;5010018;28;20408;-66
2023/08/22 09:28:32;;;;;;;;;;;;;;;;;;5008031;28;19925;-66
2023/08/22 09:30:59;;;;;;;;;;;;;;;;;;5010137;28;19980;-67
2023/08/22 09:33:26;;;;;;;;;;;;;;;;;;5010487;28;19988;-67
2023/08/22 09:35:53;;;;;;;;;;;;;;;;;;5010011;28;19934;-66
2023/08/22 09:38:20;;;;;;;;;;;;;;;;;;5012751;28;20455;-67
2023/08/22 09:40:47;;;;;;;;;;;;;;;;;;5009468;28;19932;-67
2023/08/22 09:43:14;;;;;;;;;;;;;;;;;;5009271;28;19945;-66
2023/08/22 09:45:42;;;;;;;;;;;;;;;;;;5012890;28;19932;-67
2023/08/22 09:48:09;;;;;;;;;;;;;;;;;;5006569;28;20410;-66
2023/08/22 09:50:36;;;;;;;;;;;;;;;;;;5012138;28;20377;-67
2023/08/22 09:53:04;;;;;;;;;;;;;;;;;;5008989;28;19925;-67
2023/08/22 09:55:31;;;;;;;;;;;;;;;;;;4998347;28;19937;-66
2023/08/22 09:57:58;;;;;;;;;;;;;;;;;;5010129;28;19937;-68
2023/08/22 10:00:30;;;;;;;;;;;;;;;;;;5013272;28;20415;-66
2023/08/22 10:02:57;;;;;;;;;;;;;;;;;;5006512;28;20399;-67
2023/08/22 10:05:24;;;;;;;;;;;;;;;;;;5015316;28;19984;-67
2023/08/22 10:07:51;;;;;;;;;;;;;;;;;;5013012;28;19937;-67
2023/08/22 10:10:18;;;;;;;;;;;;;;;;;;5019097;28;19929;-66
2023/08/22 10:12:45;;;;;;;;;;;;;;;;;;5014127;28;19926;-66
2023/08/22 10:15:12;;;;;;;;;;;;;;;;;;5008153;28;20369;-66
2023/08/22 10:17:40;;;;;;;;;;;;;;;;;;5011369;28;19995;-67
2023/08/22 10:20:07;;;;;;;;;;;;;;;;;;5009066;28;23444;-67
2023/08/22 10:22:34;;;;;;;;;;;;;;;;;;5003145;28;19949;-67
2023/08/22 10:25:01;;;;;;;;;;;;;;;;;;5008736;28;19980;-66
2023/08/22 10:27:28;;;;;;;;;;;;;;;;;;5009043;28;20335;-66
2023/08/22 10:29:55;;;;;;;;;;;;;;;;;;5013032;28;19929;-66
2023/08/22 10:32:22;;;;;;;;;;;;;;;;;;5003357;28;20027;-67
2023/08/22 10:34:48;;;;;;;;;;;;;;;;;;5000871;28;19934;-67
2023/08/22 10:37:15;;;;;;;;;;;;;;;;;;5008261;28;20431;-67
2023/08/22 10:39:42;;;;;;;;;;;;;;;;;;5011541;28;19971;-67
2023/08/22 10:42:09;;;;;;;;;;;;;;;;;;5007943;28;19987;-68
2023/08/22 10:44:36;;;;;;;;;;;;;;;;;;5002135;28;19935;-68
2023/08/22 10:47:03;;;;;;;;;;;;;;;;;;5007705;28;19926;-66
2023/08/22 10:49:30;;;;;;;;;;;;;;;;;;5010546;28;20023;-66
2023/08/22 10:51:57;;;;;;;;;;;;;;;;;;5010581;28;20385;-66
2023/08/22 10:54:25;;;;;;;;;;;;;;;;;;5011174;28;19925;-67
2023/08/22 10:56:52;;;;;;;;;;;;;;;;;;5013589;28;20344;-67
2023/08/22 10:59:19;;;;;;;;;;;;;;;;;;5012366;28;19926;-67
2023/08/22 11:01:46;;;;;;;;;;;;;;;;;;5012993;28;19968;-66
2023/08/22 11:04:13;;;;;;;;;;;;;;;;;;5005167;28;19980;-66
2023/08/22 11:06:40;;;;;;;;;;;;;;;;;;5012215;28;19929;-66
2023/08/22 11:09:07;;;;;;;;;;;;;;;;;;5011022;28;20375;-67
2023/08/22 11:11:34;;;;;;;;;;;;;;;;;;5011467;28;19929;-67
2023/08/22 11:14:01;;;;;;;;;;;;;;;;;;5010941;28;19925;-66
2023/08/22 11:16:28;;;;;;;;;;;;;;;;;;5012823;28;19980;-68
2023/08/22 11:18:55;;;;;;;;;;;;;;;;;;5013891;28;19974;-68
2023/08/22 11:21:22;;;;;;;;;;;;;;;;;;5010550;28;19929;-67
2023/08/22 11:23:49;;;;;;;;;;;;;;;;;;5006917;28;19971;-67
2023/08/22 11:26:16;;;;;;;;;;;;;;;;;;5004100;28;19930;-67
2023/08/22 11:28:44;;;;;;;;;;;;;;;;;;5007452;28;19929;-66
2023/08/22 11:31:11;;;;;;;;;;;;;;;;;;5008837;28;20404;-68
2023/08/22 11:33:38;;;;;;;;;;;;;;;;;;5010299;28;19972;-67
2023/08/22 11:36:05;;;;;;;;;;;;;;;;;;5008080;28;20014;-67
2023/08/22 11:38:32;;;;;;;;;;;;;;;;;;5004604;28;20008;-67
2023/08/22 11:40:59;;;;;;;;;;;;;;;;;;5008484;28;19987;-67
2023/08/22 11:43:26;;;;;;;;;;;;;;;;;;5005178;28;20158;-67
2023/08/22 11:45:53;;;;;;;;;;;;;;;;;;5008180;28;19936;-66
2023/08/22 11:48:21;;;;;;;;;;;;;;;;;;5010614;28;19936;-68
2023/08/22 11:50:48;;;;;;;;;;;;;;;;;;5009395;28;19957;-67
2023/08/22 11:53:15;;;;;;;;;;;;;;;;;;5008920;28;19941;-67
2023/08/22 11:55:43;;;;;;;;;;;;;;;;;;5005245;28;19925;-67
2023/08/22 11:58:10;;;;;;;;;;;;;;;;;;5011130;28;19948;-69
2023/08/22 12:00:37;;;;;;;;;;;;;;;;;;5012205;28;19976;-66
2023/08/22 12:03:05;;;;;;;;;;;;;;;;;;5008148;28;20361;-67
2023/08/22 12:05:32;;;;;;;;;;;;;;;;;;5003003;28;20004;-65
2023/08/22 12:07:59;;;;;;;;;;;;;;;;;;5005345;28;19926;-66
2023/08/22 12:10:26;;;;;;;;;;;;;;;;;;5006335;28;20041;-66
2023/08/22 12:12:53;;;;;;;;;;;;;;;;;;5012604;28;20289;-67
2023/08/22 12:15:20;;;;;;;;;;;;;;;;;;4993866;28;19957;-66
2023/08/22 12:17:47;;;;;;;;;;;;;;;;;;5011288;28;19925;-66
2023/08/22 12:20:14;;;;;;;;;;;;;;;;;;5012392;28;19983;-65
2023/08/22 12:22:41;;;;;;;;;;;;;;;;;;5006596;28;20527;-67
2023/08/22 12:25:08;;;;;;;;;;;;;;;;;;5003598;28;20568;-65
2023/08/22 12:27:35;;;;;;;;;;;;;;;;;;5008700;28;19925;-66
2023/08/22 12:30:03;;;;;;;;;;;;;;;;;;5012287;28;19925;-65
2023/08/22 12:32:31;;;;;;;;;;;;;;;;;;5010496;28;20431;-66
2023/08/22 12:34:58;;;;;;;;;;;;;;;;;;5011135;28;20369;-66
2023/08/22 12:37:25;;;;;;;;;;;;;;;;;;5011749;28;19933;-68
2023/08/22 12:39:52;;;;;;;;;;;;;;;;;;5007641;28;20369;-66
2023/08/22 12:42:19;;;;;;;;;;;;;;;;;;5009289;28;19983;-67
2023/08/22 12:44:46;;;;;;;;;;;;;;;;;;5006121;28;19933;-69
2023/08/22 12:47:14;;;;;;;;;;;;;;;;;;5007247;28;19929;-69
2023/08/22 12:49:41;;;;;;;;;;;;;;;;;;5008385;28;20371;-66
2023/08/22 12:52:08;;;;;;;;;;;;;;;;;;5010489;28;19930;-66
2023/08/22 12:54:35;;;;;;;;;;;;;;;;;;5005945;28;19926;-68
2023/08/22 12:57:02;;;;;;;;;;;;;;;;;;5005676;28;20428;-69
2023/08/22 12:59:29;;;;;;;;;;;;;;;;;;5018889;28;19946;-69
2023/08/22 13:01:56;;;;;;;;;;;;;;;;;;5017540;28;19933;-67
2023/08/22 13:04:23;;;;;;;;;;;;;;;;;;5007511;28;19934;-69
2023/08/22 13:06:50;;;;;;;;;;;;;;;;;;5007218;28;19934;-66
2023/08/22 13:09:17;;;;;;;;;;;;;;;;;;5003740;28;19948;-67
2023/08/22 13:11:44;;;;;;;;;;;;;;;;;;5002866;28;20447;-68
2023/08/22 13:14:12;;;;;;;;;;;;;;;;;;5009553;28;19933;-67
2023/08/22 13:16:39;;;;;;;;;;;;;;;;;;5002196;28;19932;-68
2023/08/22 13:19:06;;;;;;;;;;;;;;;;;;5000649;28;19925;-68
2023/08/22 13:21:33;;;;;;;;;;;;;;;;;;5006366;28;20353;-67
2023/08/22 13:24:01;;;;;;;;;;;;;;;;;;5003599;28;19929;-67
2023/08/22 13:26:28;;;;;;;;;;;;;;;;;;5000880;28;20365;-68
2023/08/22 13:28:55;;;;;;;;;;;;;;;;;;5009326;28;19925;-68
2023/08/22 13:31:22;;;;;;;;;;;;;;;;;;4999912;28;19929;-67
2023/08/22 13:33:49;;;;;;;;;;;;;;;;;;5009089;28;20328;-67
2023/08/22 13:36:16;;;;;;;;;;;;;;;;;;5008306;28;20447;-66
2023/08/22 13:38:43;;;;;;;;;;;;;;;;;;5005459;28;20258;-66
2023/08/22 13:41:10;;;;;;;;;;;;;;;;;;5009233;28;19934;-66
2023/08/22 13:43:39;;;;;;;;;;;;;;;;;;5008046;28;19937;-66
2023/08/22 13:46:06;;;;;;;;;;;;;;;;;;5011612;28;19957;-68
2023/08/22 13:48:34;;;;;;;;;;;;;;;;;;5009975;28;20332;-67
2023/08/22 13:51:01;;;;;;;;;;;;;;;;;;5009064;28;19925;-68
2023/08/22 13:53:31;;;;;;;;;;;;;;;;;;5007374;28;19933;-70
2023/08/22 13:55:58;;;;;;;;;;;;;;;;;;5011826;28;19976;-70
2023/08/22 13:58:25;;;;;;;;;;;;;;;;;;5011215;28;20303;-68
2023/08/22 14:00:52;;;;;;;;;;;;;;;;;;5008413;28;19988;-69
2023/08/22 14:03:19;;;;;;;;;;;;;;;;;;5012899;28;20455;-68
2023/08/22 14:05:46;;;;;;;;;;;;;;;;;;5000452;28;20633;-68
2023/08/22 14:08:13;;;;;;;;;;;;;;;;;;4999100;28;19925;-70
2023/08/22 14:10:40;;;;;;;;;;;;;;;;;;5008640;28;20400;-69
2023/08/22 14:13:07;;;;;;;;;;;;;;;;;;5011051;28;19926;-69
2023/08/22 14:15:34;;;;;;;;;;;;;;;;;;5011281;28;19925;-70
2023/08/22 14:18:01;;;;;;;;;;;;;;;;;;5011753;28;19932;-67
2023/08/22 14:20:28;;;;;;;;;;;;;;;;;;5013802;28;19925;-68
2023/08/22 14:22:55;;;;;;;;;;;;;;;;;;5001786;28;19926;-67
2023/08/22 14:25:22;;;;;;;;;;;;;;;;;;4998700;28;20347;-67
2023/08/22 14:27:49;;;;;;;;;;;;;;;;;;5002718;28;19929;-68
2023/08/22 14:30:16;;;;;;;;;;;;;;;;;;5000589;28;19926;-67
2023/08/22 14:32:43;;;;;;;;;;;;;;;;;;5015306;28;19960;-68
2023/08/22 14:35:10;;;;;;;;;;;;;;;;;;5015359;28;19933;-67
2023/08/22 14:37:37;;;;;;;;;;;;;;;;;;5008430;28;19929;-67
2023/08/22 14:40:05;;;;;;;;;;;;;;;;;;5006827;28;19957;-67
2023/08/22 14:42:32;;;;;;;;;;;;;;;;;;5007776;28;20404;-68
2023/08/22 14:44:59;;;;;;;;;;;;;;;;;;5011383;28;20305;-68
2023/08/22 14:47:26;;;;;;;;;;;;;;;;;;5015674;28;19944;-68
2023/08/22 14:49:53;;;;;;;;;;;;;;;;;;5006559;28;19929;-69
2023/08/22 14:52:20;;;;;;;;;;;;;;;;;;5010911;28;19925;-69
2023/08/22 14:54:47;;;;;;;;;;;;;;;;;;5009548;28;19925;-69
2023/08/22 14:57:14;;;;;;;;;;;;;;;;;;5030967;28;20347;-68
2023/08/22 14:59:42;;;;;;;;;;;;;;;;;;5008321;28;20375;-68
2023/08/22 15:02:09;;;;;;;;;;;;;;;;;;5012229;28;20385;-70
2023/08/22 15:04:36;;;;;;;;;;;;;;;;;;5006371;28;20015;-68
2023/08/22 15:07:03;;;;;;;;;;;;;;;;;;5010446;28;20394;-68
2023/08/22 15:09:30;;;;;;;;;;;;;;;;;;5010203;28;19938;-67
2023/08/22 15:11:57;;;;;;;;;;;;;;;;;;5011354;28;19925;-70
2023/08/22 15:14:24;;;;;;;;;;;;;;;;;;5011708;28;19960;-69
2023/08/22 15:16:51;;;;;;;;;;;;;;;;;;5007899;28;19957;-69
2023/08/22 15:19:18;;;;;;;;;;;;;;;;;;5004376;28;19936;-70
2023/08/22 15:21:45;;;;;;;;;;;;;;;;;;5012464;28;19926;-69
2023/08/22 15:24:13;;;;;;;;;;;;;;;;;;5010937;28;19964;-70
2023/08/22 15:26:42;;;;;;;;;;;;;;;;;;5005041;28;19930;-70
2023/08/22 15:29:09;;;;;;;;;;;;;;;;;;5007408;28;19926;-68
2023/08/22 15:31:36;;;;;;;;;;;;;;;;;;5009948;28;19972;-71
2023/08/22 15:34:03;;;;;;;;;;;;;;;;;;5011730;28;20059;-71
2023/08/22 15:36:30;;;;;;;;;;;;;;;;;;5011436;28;19964;-69
2023/08/22 15:38:57;;;;;;;;;;;;;;;;;;5009931;28;19991;-68
2023/08/22 15:41:26;;;;;;;;;;;;;;;;;;5007408;28;19971;-69
2023/08/22 15:43:53;;;;;;;;;;;;;;;;;;5009996;28;19925;-68
2023/08/22 15:46:20;;;;;;;;;;;;;;;;;;5009287;28;19930;-70
2023/08/22 15:48:47;;;;;;;;;;;;;;;;;;5008802;28;20020;-68
2023/08/22 15:51:14;;;;;;;;;;;;;;;;;;5006450;28;19925;-68
2023/08/22 15:53:41;;;;;;;;;;;;;;;;;;5009879;28;20376;-67
2023/08/22 15:56:08;;;;;;;;;;;;;;;;;;5000352;28;20024;-68
2023/08/22 15:58:35;;;;;;;;;;;;;;;;;;5012350;28;20040;-67
2023/08/22 16:01:02;;;;;;;;;;;;;;;;;;5012845;28;20006;-69
2023/08/22 16:03:29;;;;;;;;;;;;;;;;;;5020975;28;19941;-69
2023/08/22 16:05:57;;;;;;;;;;;;;;;;;;5013269;28;19925;-69
2023/08/22 16:08:24;;;;;;;;;;;;;;;;;;5010868;28;19925;-68
2023/08/22 16:10:53;;;;;;;;;;;;;;;;;;5007930;28;19925;-68
2023/08/22 16:13:20;;;;;;;;;;;;;;;;;;5011934;28;19979;-69
2023/08/22 16:15:48;;;;;;;;;;;;;;;;;;5012748;28;20348;-69
2023/08/22 16:18:15;;;;;;;;;;;;;;;;;;5011322;28;20691;-68
2023/08/22 16:20:42;;;;;;;;;;;;;;;;;;5011845;28;19933;-68
2023/08/22 16:23:09;;;;;;;;;;;;;;;;;;5004630;28;19929;-69
2023/08/22 16:25:36;;;;;;;;;;;;;;;;;;5005124;28;20031;-69
2023/08/22 16:28:03;;;;;;;;;;;;;;;;;;5005076;28;19979;-69
2023/08/22 16:30:30;;;;;;;;;;;;;;;;;;5008907;28;19988;-68
2023/08/22 16:32:57;;;;;;;;;;;;;;;;;;5011394;28;19948;-68
2023/08/22 16:35:24;;;;;;;;;;;;;;;;;;5009346;28;19931;-69
2023/08/22 16:37:51;;;;;;;;;;;;;;;;;;5010622;28;19937;-69
2023/08/22 16:40:18;;;;;;;;;;;;;;;;;;5010858;28;20306;-68
2023/08/22 16:42:45;;;;;;;;;;;;;;;;;;5011001;28;19926;-69
2023/08/22 16:45:12;;;;;;;;;;;;;;;;;;5011539;28;19929;-69